Airfield :
LOGIN :

Register | Disclaimer

   EN    FR    IT 

 










Legend :    VFR   Marginal VFR   IFR   Intensive IFR   Very Intensive IFR
Visi :
Ceiling :
>= 8 km
>= 3000ft
5 to 8 km
1000 to 3000 ft
1500m to 5 km
500 to 1000 ft
800 to 1500m
200 to 500 ft
< 800m
< 200 ft
Symbols :   Thunderstorms  Fog  Heavy snow  Heavy precipitations  Wind > 20 kt
SIGMETs :     Misc.  Thunderstorms  Icing  Turbulence  Mountain Waves  Volcanic Ashes






- Airport Elevation : 388 ft
- IATA code : QYR


LFQB - Troyes Barberey

CURRENT METAR :
  • 262000Z AUTO 17003KT 5000 BR NSC 02/01 Q1019

EXPIRED METARs :
  • 261930Z AUTO 00000KT CAVOK 02/01 Q1019
  • 261900Z AUTO 33001KT 8000 NSC 02/01 Q1019
  • 261830Z AUTO 00000KT CAVOK 04/03 Q1019
  • 261800Z AUTO 17002KT CAVOK 03/02 Q1019
  • 261730Z AUTO 18001KT CAVOK 03/02 Q1019
  • 261700Z AUTO 18002KT CAVOK 04/02 Q1019

TAF N/A



MET'MAP, your aeronautical weather chart ! - Copyright ORBIFLY December 2007 - Disclaimer

ORBIFLY MET'MAP TEAM :

Programming & Development : Alexandra Zaïnal
Concept & original design : Baudouin d'Aumeries
Assistance for programming : Marc-Olivier Méhu
Technical & hardware support : Manuel Goepfert

Contact : metmap@orbifly.com




SOURCES & CREDITS :

   NOAA